createdAt,value
2018-12-01T00:01:02.481Z,98864.52
2018-12-01T00:03:32.076Z,98871.86
2018-12-01T00:06:17.239Z,98855.62
2018-12-01T00:08:46.621Z,98860.98
2018-12-01T00:11:16.053Z,98867.60
2018-12-01T00:13:45.454Z,98863.09
2018-12-01T00:16:14.806Z,98852.84
2018-12-01T00:18:44.971Z,98850.19
2018-12-01T00:21:16.072Z,98852.61
2018-12-01T00:23:45.478Z,98848.02
2018-12-01T00:26:14.795Z,98854.08
2018-12-01T00:28:44.204Z,98847.25
2018-12-01T00:31:13.649Z,98845.91
2018-12-01T00:33:43.014Z,98844.42
2018-12-01T00:36:12.387Z,98846.67
2018-12-01T00:38:41.790Z,98840.88
2018-12-01T00:41:11.175Z,98843.16
2018-12-01T00:43:40.650Z,98844.30
2018-12-01T00:46:10.155Z,98847.48
2018-12-01T00:48:39.505Z,98849.72
2018-12-01T00:51:08.858Z,98841.28
2018-12-01T00:53:38.251Z,98850.39
2018-12-01T00:56:07.655Z,98853.88
2018-12-01T00:58:37.339Z,98843.43
2018-12-01T01:01:09.353Z,98847.84
2018-12-01T01:03:38.781Z,98844.63
2018-12-01T01:06:08.357Z,98849.61
2018-12-01T01:08:37.874Z,98851.25
2018-12-01T01:11:07.169Z,98855.91
2018-12-01T01:13:37.977Z,98852.75
2018-12-01T01:16:09.519Z,98843.97
2018-12-01T01:18:39.300Z,98845.16
2018-12-01T01:21:09.017Z,98846.41
2018-12-01T01:23:38.732Z,98843.39
2018-12-01T01:26:08.594Z,98841.98
2018-12-01T01:28:38.113Z,98846.91
2018-12-01T01:31:08.273Z,98851.56
2018-12-01T01:33:38.197Z,98841.32
2018-12-01T01:36:08.017Z,98840.75
2018-12-01T01:38:37.374Z,98843.03
2018-12-01T01:41:08.465Z,98842.86
2018-12-01T01:43:38.392Z,98838.94
2018-12-01T01:46:10.014Z,98835.13
2018-12-01T01:48:39.432Z,98834.72
2018-12-01T01:51:09.364Z,98833.51
2018-12-01T01:53:38.824Z,98832.54
2018-12-01T01:56:09.421Z,98840.64
2018-12-01T01:58:40.294Z,98829.86
2018-12-01T02:01:11.198Z,98831.73
2018-12-01T02:03:42.869Z,98835.80
2018-12-01T02:06:13.114Z,98830.14
2018-12-01T02:08:42.562Z,98826.30
2018-12-01T02:11:12.794Z,98815.86
2018-12-01T02:13:42.573Z,98821.08
2018-12-01T02:16:12.073Z,98825.67
2018-12-01T02:18:41.998Z,98821.75
2018-12-01T02:21:15.332Z,98821.81
2018-12-01T02:23:44.779Z,98818.41
2018-12-01T02:26:14.216Z,98816.30
2018-12-01T02:28:43.814Z,98815.33
2018-12-01T02:31:13.478Z,98815.69
2018-12-01T02:33:43.082Z,98817.67
2018-12-01T02:36:12.856Z,98815.62
2018-12-01T02:38:43.209Z,98820.41
2018-12-01T02:41:13.147Z,98819.65
2018-12-01T02:43:42.944Z,98823.61
2018-12-01T02:46:23.464Z,98825.05
2018-12-01T02:48:52.942Z,98823.01
2018-12-01T02:51:23.107Z,98822.50
2018-12-01T02:53:53.385Z,98823.44
2018-12-01T02:56:22.983Z,98827.27
2018-12-01T02:58:52.527Z,98827.23
2018-12-01T03:01:28.281Z,98825.00
2018-12-01T03:03:57.849Z,98842.75
2018-12-01T03:06:27.261Z,98823.29
2018-12-01T03:08:56.805Z,98838.89
2018-12-01T03:11:26.468Z,98821.89
2018-12-01T03:13:55.921Z,98830.37
2018-12-01T03:16:26.210Z,98842.13
2018-12-01T03:18:55.770Z,98835.83
2018-12-01T03:21:30.613Z,98857.88
2018-12-01T03:24:01.255Z,98850.22
2018-12-01T03:26:30.761Z,98854.53
2018-12-01T03:29:01.111Z,98845.13
2018-12-01T03:31:30.638Z,98847.92
2018-12-01T03:34:00.244Z,98843.67
2018-12-01T03:36:30.452Z,98848.22
2018-12-01T03:39:00.337Z,98843.31
2018-12-01T03:41:31.621Z,98845.47
2018-12-01T03:44:01.086Z,98845.08
2018-12-01T03:46:30.480Z,98856.91
2018-12-01T03:49:00.347Z,98857.27
2018-12-01T03:51:29.808Z,98848.31
2018-12-01T03:53:59.318Z,98851.52
2018-12-01T03:56:29.046Z,98850.48
2018-12-01T03:58:59.682Z,98853.72
2018-12-01T04:01:29.598Z,98851.41
2018-12-01T04:03:59.492Z,98852.91
2018-12-01T04:06:30.679Z,98858.09
2018-12-01T04:09:04.279Z,98862.98
2018-12-01T04:11:34.605Z,98857.52
2018-12-01T04:14:04.148Z,98861.23
2018-12-01T04:16:33.808Z,98854.14
2018-12-01T04:19:03.157Z,98862.19
2018-12-01T04:21:36.486Z,98862.93
2018-12-01T04:24:06.125Z,98860.30
2018-12-01T04:26:35.519Z,98864.86
2018-12-01T04:29:05.087Z,98855.02
2018-12-01T04:31:34.545Z,98863.66
2018-12-01T04:34:04.089Z,98866.09
2018-12-01T04:36:33.491Z,98872.75
2018-12-01T04:39:02.993Z,98872.05
2018-12-01T04:41:32.396Z,98871.41
2018-12-01T04:44:02.895Z,98875.09
2018-12-01T04:46:32.351Z,98874.47
2018-12-01T04:49:01.881Z,98873.92
2018-12-01T04:51:32.200Z,98872.75
2018-12-01T04:54:01.579Z,98873.17
2018-12-01T04:56:32.175Z,98879.70
2018-12-01T04:59:01.684Z,98890.82
2018-12-01T05:01:32.636Z,98888.09
2018-12-01T05:04:02.359Z,98881.22
2018-12-01T05:06:32.408Z,98887.70
2018-12-01T05:09:01.908Z,98885.77
2018-12-01T05:11:31.337Z,98883.63
2018-12-01T05:14:01.207Z,98890.25
2018-12-01T05:16:30.756Z,98887.94
2018-12-01T05:19:00.147Z,98894.48
2018-12-01T05:21:29.597Z,98883.77
2018-12-01T05:23:59.012Z,98896.65
2018-12-01T05:26:28.530Z,98891.50
2018-12-01T05:28:57.985Z,98895.09
2018-12-01T05:31:27.883Z,98899.27
2018-12-01T05:33:57.866Z,98899.89
2018-12-01T05:36:27.163Z,98902.20
2018-12-01T05:38:56.550Z,98903.53
2018-12-01T05:41:26.470Z,98908.81
2018-12-01T05:43:55.923Z,98903.45
2018-12-01T05:46:26.187Z,98909.38
2018-12-01T05:48:55.694Z,98904.13
2018-12-01T05:51:25.740Z,98899.83
2018-12-01T05:53:55.271Z,98894.70
2018-12-01T05:56:26.082Z,98905.58
2018-12-01T06:00:25.635Z,98906.63
2018-12-01T06:03:08.837Z,98902.95
2018-12-01T06:05:38.235Z,98911.36
2018-12-01T06:08:08.232Z,98910.63
2018-12-01T06:10:37.884Z,98917.39
2018-12-01T06:13:08.169Z,98916.83
2018-12-01T06:15:37.654Z,98917.89
2018-12-01T06:18:07.972Z,98914.73
2018-12-01T06:20:37.509Z,98920.46
2018-12-01T06:23:08.459Z,98918.59
2018-12-01T06:25:37.793Z,98920.58
2018-12-01T06:28:07.157Z,98926.37
2018-12-01T06:30:36.651Z,98924.16
2018-12-01T06:33:06.361Z,98925.80
2018-12-01T06:35:35.974Z,98921.14
2018-12-01T06:38:05.573Z,98918.41
2018-12-01T06:40:36.673Z,98917.91
2018-12-01T06:43:08.950Z,98910.34
2018-12-01T06:45:38.435Z,98922.73
2018-12-01T06:48:08.418Z,98930.77
2018-12-01T06:50:37.918Z,98927.52
2018-12-01T06:53:08.328Z,98929.22
2018-12-01T06:55:37.854Z,98928.95
2018-12-01T06:58:07.464Z,98934.01
2018-12-01T07:00:36.818Z,98936.23
2018-12-01T07:03:07.758Z,98942.36
2018-12-01T07:11:29.510Z,98949.95
2018-12-01T07:14:00.090Z,98951.02
2018-12-01T07:16:29.494Z,98955.12
2018-12-01T07:21:52.033Z,98959.31
2018-12-01T07:24:22.179Z,98962.11
2018-12-01T07:26:51.650Z,98948.22
2018-12-01T07:29:40.686Z,98959.20
2018-12-01T07:32:10.339Z,98955.39
2018-12-01T07:34:40.018Z,98965.34
2018-12-01T07:37:10.078Z,98966.24
2018-12-01T07:43:04.346Z,98962.49
2018-12-01T07:48:33.353Z,98969.66
2018-12-01T07:51:13.273Z,98971.15
2018-12-01T07:53:42.901Z,98965.84
2018-12-01T07:56:12.443Z,98968.52
2018-12-01T07:58:42.685Z,98966.72
2018-12-01T08:01:13.063Z,98966.89
2018-12-01T08:03:44.706Z,98972.81
2018-12-01T08:06:14.974Z,98971.50
2018-12-01T08:08:44.773Z,98971.95
2018-12-01T08:11:28.546Z,98967.41
2018-12-01T08:13:59.864Z,98974.69
2018-12-01T08:16:32.255Z,98975.25
2018-12-01T08:19:05.897Z,98979.06
2018-12-01T08:21:37.190Z,98976.77
2018-12-01T08:24:08.500Z,98966.48
2018-12-01T08:26:41.769Z,98964.31
2018-12-01T08:29:15.139Z,98959.44
2018-12-01T08:31:47.648Z,98962.38
2018-12-01T08:34:18.889Z,98969.96
2018-12-01T08:36:54.517Z,98964.80
2018-12-01T08:39:24.901Z,98962.25
2018-12-01T08:41:57.423Z,98969.47
2018-12-01T08:44:28.171Z,98971.29
2018-12-01T08:47:05.429Z,98970.60
2018-12-01T08:49:35.115Z,98964.05
2018-12-01T08:52:10.130Z,98977.63
2018-12-01T08:54:39.848Z,98979.87
2018-12-01T08:57:09.478Z,98976.50
2018-12-01T08:59:39.092Z,98980.70
2018-12-01T09:02:08.599Z,98978.69
2018-12-01T09:04:39.452Z,98982.06
2018-12-01T09:07:09.155Z,98978.83
2018-12-01T09:09:40.467Z,98971.23
2018-12-01T09:12:10.816Z,98976.83
2018-12-01T09:14:40.442Z,98981.45
2018-12-01T09:17:10.394Z,98993.16
2018-12-01T09:19:40.042Z,98990.94
2018-12-01T09:22:09.793Z,98995.67
2018-12-01T09:24:39.394Z,98991.95
2018-12-01T09:27:09.219Z,98993.23
2018-12-01T09:29:40.243Z,98993.23
2018-12-01T09:32:09.700Z,99003.93
2018-12-01T09:34:41.401Z,98997.70
2018-12-01T09:37:10.882Z,98995.32
2018-12-01T09:39:42.535Z,98996.61
2018-12-01T09:42:12.833Z,98999.44
2018-12-01T09:44:42.480Z,98993.95
2018-12-01T09:47:12.034Z,98992.77
2018-12-01T09:49:43.007Z,98983.84
2018-12-01T09:52:14.657Z,98981.66
2018-12-01T09:54:51.619Z,98982.65
2018-12-01T09:57:21.671Z,98982.17
2018-12-01T09:59:51.732Z,98982.78
2018-12-01T10:02:22.028Z,98986.69
2018-12-01T10:04:51.913Z,98977.70
2018-12-01T10:07:21.371Z,98975.23
2018-12-01T10:09:50.861Z,98985.16
2018-12-01T10:12:28.272Z,98983.95
2018-12-01T10:14:59.644Z,98982.77
2018-12-01T10:17:31.590Z,98979.89
2018-12-01T10:20:02.253Z,98979.28
2018-12-01T10:22:31.860Z,98976.52
2018-12-01T10:25:01.745Z,98975.34
2018-12-01T10:27:31.386Z,98977.81
2018-12-01T10:30:01.786Z,98976.95
2018-12-01T10:32:32.614Z,98966.53
2018-12-01T10:35:03.980Z,98967.89
2018-12-01T10:37:33.878Z,98963.50
2018-12-01T10:40:10.936Z,98962.61
2018-12-01T10:42:40.604Z,98958.73
2018-12-01T10:45:12.630Z,98965.09
2018-12-01T10:47:43.034Z,98960.77
2018-12-01T10:50:14.742Z,98955.63
2018-12-01T10:52:44.853Z,98942.81
2018-12-01T10:55:24.668Z,98946.08
2018-12-01T10:58:01.532Z,98936.46
2018-12-01T11:00:37.182Z,98936.11
2018-12-01T11:03:13.684Z,98937.16
2018-12-01T11:05:47.748Z,98942.41
2018-12-01T11:08:17.938Z,98934.80
2018-12-01T11:10:48.754Z,98935.11
2018-12-01T11:13:18.789Z,98938.55
2018-12-01T11:15:48.284Z,98937.17
2018-12-01T11:18:17.792Z,98934.28
2018-12-01T11:20:48.486Z,98931.00
2018-12-01T11:23:18.457Z,98931.68
2018-12-01T11:25:48.246Z,98928.18
2018-12-01T11:28:18.709Z,98929.52
2018-12-01T11:30:50.643Z,98932.53
2018-12-01T11:33:20.734Z,98929.17
2018-12-01T11:35:50.566Z,98935.62
2018-12-01T11:38:20.638Z,98932.53
2018-12-01T11:40:51.479Z,98928.81
2018-12-01T11:43:21.413Z,98934.98
2018-12-01T11:45:51.352Z,98939.11
2018-12-01T11:48:21.332Z,98937.02
2018-12-01T11:50:51.520Z,98935.30
2018-12-01T11:53:22.131Z,98931.45
2018-12-01T11:55:52.225Z,98929.28
2018-12-01T11:58:21.699Z,98931.08
2018-12-01T12:00:51.479Z,98922.84
2018-12-01T12:03:23.520Z,98924.95
2018-12-01T12:05:55.639Z,98927.03
2018-12-01T12:08:26.274Z,98932.17
2018-12-01T12:10:56.453Z,98933.59
2018-12-01T12:13:30.335Z,98932.00
2018-12-01T12:16:01.554Z,98944.80
2018-12-01T12:18:31.121Z,98940.98
2018-12-01T12:21:00.750Z,98943.69
2018-12-01T12:23:30.650Z,98946.33
2018-12-01T12:26:00.906Z,98941.73
2018-12-01T12:28:30.763Z,98939.53
2018-12-01T12:31:00.515Z,98942.66
2018-12-01T12:33:39.941Z,98945.58
2018-12-01T12:36:09.446Z,98937.87
2018-12-01T12:38:40.238Z,98937.81
2018-12-01T12:41:11.469Z,98934.17
2018-12-01T12:43:44.502Z,98937.80
2018-12-01T12:46:14.386Z,98943.57
2018-12-01T12:48:43.992Z,98944.47
2018-12-01T12:54:07.469Z,98934.67
2018-12-01T12:56:43.540Z,98930.53
2018-12-01T12:59:13.361Z,98927.22
2018-12-01T13:01:43.917Z,98930.02
2018-12-01T13:04:15.262Z,98926.55
2018-12-01T13:06:45.896Z,98925.15
2018-12-01T13:09:15.600Z,98919.44
2018-12-01T13:11:45.196Z,98923.59
2018-12-01T13:14:15.284Z,98925.35
2018-12-01T13:16:44.830Z,98920.36
2018-12-01T13:19:14.596Z,98931.70
2018-12-01T13:21:44.185Z,98924.09
2018-12-01T13:24:14.082Z,98922.58
2018-12-01T13:26:44.098Z,98932.76
2018-12-01T13:29:14.876Z,98928.73
2018-12-01T13:31:44.577Z,98925.77
2018-12-01T13:34:15.157Z,98933.48
2018-12-01T13:36:45.235Z,98933.57
2018-12-01T13:39:15.475Z,98937.80
2018-12-01T13:41:46.113Z,98935.64
2018-12-01T13:44:18.105Z,98934.42
2018-12-01T13:46:47.997Z,98944.56
2018-12-01T13:49:35.352Z,98943.80
2018-12-01T13:52:04.946Z,98937.70
2018-12-01T13:54:35.526Z,98940.89
2018-12-01T13:57:05.141Z,98934.88
2018-12-01T13:59:34.694Z,98948.84
2018-12-01T14:02:04.428Z,98953.80
2018-12-01T14:04:34.936Z,98955.52
2018-12-01T14:07:04.899Z,98960.47
2018-12-01T14:09:34.583Z,98958.18
2018-12-01T14:12:04.659Z,98954.16
2018-12-01T14:14:34.735Z,98947.64
2018-12-01T14:17:05.282Z,98945.53
2018-12-01T14:19:36.582Z,98942.11
2018-12-01T14:22:06.122Z,98942.20
2018-12-01T14:24:36.594Z,98943.91
2018-12-01T14:27:07.291Z,98946.48
2018-12-01T14:29:37.509Z,98954.91
2018-12-01T14:32:09.628Z,98952.24
2018-12-01T14:34:39.459Z,98952.44
2018-12-01T14:37:09.181Z,98942.97
2018-12-01T14:39:38.753Z,98947.45
2018-12-01T14:42:08.180Z,98946.30
2018-12-01T14:44:38.051Z,98951.50
2018-12-01T14:47:10.711Z,98945.89
2018-12-01T14:49:41.349Z,98953.52
2018-12-01T14:52:13.965Z,98956.63
2018-12-01T14:54:46.727Z,98953.00
2018-12-01T14:57:16.657Z,98956.08
2018-12-01T14:59:49.487Z,98956.08
2018-12-01T15:02:23.412Z,98957.83
2018-12-01T15:04:56.279Z,98955.67
2018-12-01T15:07:26.268Z,98963.53
2018-12-01T15:09:55.638Z,98960.59
2018-12-01T15:12:25.473Z,98960.70
2018-12-01T15:14:58.088Z,98955.11
2018-12-01T15:17:27.926Z,98963.22
2018-12-01T15:19:59.929Z,98955.91
2018-12-01T15:23:56.650Z,98958.53
2018-12-01T15:26:26.571Z,98962.35
2018-12-01T15:28:59.415Z,98965.91
2018-12-01T15:31:29.075Z,98960.92
2018-12-01T15:33:59.779Z,98972.92
2018-12-01T15:36:29.436Z,98970.73
2018-12-01T15:39:03.225Z,98974.15
2018-12-01T15:41:41.552Z,98979.04
2018-12-01T15:44:16.787Z,98974.09
2018-12-01T15:46:46.272Z,98972.23
2018-12-01T15:49:16.235Z,98970.86
2018-12-01T15:51:56.356Z,98978.93
2018-12-01T15:55:05.547Z,98983.16
2018-12-01T15:57:47.410Z,98980.11
2018-12-01T16:00:18.095Z,98972.81
2018-12-01T16:02:49.896Z,98981.97
2018-12-01T16:05:20.748Z,98984.35
2018-12-01T16:07:55.204Z,98988.45
2018-12-01T16:10:25.249Z,98995.86
2018-12-01T16:13:27.682Z,98993.39
2018-12-01T16:16:08.468Z,98991.31
2018-12-01T16:18:39.891Z,98996.44
2018-12-01T16:21:09.736Z,98995.08
2018-12-01T16:23:39.516Z,98995.52
2018-12-01T16:26:08.984Z,98993.52
2018-12-01T16:28:39.503Z,98994.25
2018-12-01T16:31:10.000Z,98985.53
2018-12-01T16:33:41.590Z,98978.72
2018-12-01T16:36:11.113Z,98976.16
2018-12-01T16:38:42.329Z,98967.60
2018-12-01T16:41:33.705Z,98965.91
2018-12-01T16:44:07.378Z,98969.28
2018-12-01T16:46:41.243Z,98963.59
2018-12-01T16:49:11.769Z,98962.28
2018-12-01T16:51:47.990Z,98969.34
2018-12-01T16:54:18.196Z,98966.28
2018-12-01T16:56:47.781Z,98968.39
2018-12-01T16:59:18.130Z,98971.63
2018-12-01T17:01:49.144Z,98970.66
2018-12-01T17:04:20.528Z,98966.59
2018-12-01T17:09:28.549Z,98970.27
2018-12-01T17:12:00.704Z,98963.81
2018-12-01T17:14:33.135Z,98965.83
2018-12-01T17:17:06.765Z,98959.27
2018-12-01T17:19:37.656Z,98961.98
2018-12-01T17:22:07.384Z,98961.98
2018-12-01T17:24:36.867Z,98965.77
2018-12-01T17:27:06.875Z,98960.03
2018-12-01T17:29:37.124Z,98963.36
2018-12-01T17:32:06.817Z,98960.42
2018-12-01T17:34:36.373Z,98946.53
2018-12-01T17:37:06.394Z,98950.52
2018-12-01T17:39:37.459Z,98950.52
2018-12-01T17:42:07.742Z,98955.11
2018-12-01T17:44:37.140Z,98947.26
2018-12-01T17:47:06.852Z,98949.69
2018-12-01T17:49:36.588Z,98939.96
2018-12-01T17:52:07.060Z,98944.02
2018-12-01T17:54:37.485Z,98941.72
2018-12-01T17:58:36.535Z,98951.64
2018-12-01T18:01:09.824Z,98936.97
2018-12-01T18:03:43.267Z,98946.02
2018-12-01T18:06:14.957Z,98938.80
2018-12-01T18:08:47.210Z,98932.71
2018-12-01T18:11:22.235Z,98925.66
2018-12-01T18:13:51.877Z,98932.71
2018-12-01T18:16:30.517Z,98926.34
2018-12-01T18:19:00.043Z,98915.61
2018-12-01T18:21:33.950Z,98910.37
2018-12-01T18:24:06.514Z,98906.21
2018-12-01T18:26:37.392Z,98899.48
2018-12-01T18:29:08.221Z,98896.66
2018-12-01T18:31:40.350Z,98896.30
2018-12-01T18:34:16.923Z,98896.03
2018-12-01T18:36:46.334Z,98899.98
2018-12-01T18:39:18.065Z,98899.16
2018-12-01T18:41:49.179Z,98895.92
2018-12-01T18:44:20.528Z,98884.95
2018-12-01T18:46:52.298Z,98878.56
2018-12-01T18:49:22.170Z,98877.81
2018-12-01T18:51:56.903Z,98871.19
2018-12-01T18:54:26.321Z,98877.73
2018-12-01T18:56:56.247Z,98871.08
2018-12-01T18:59:25.779Z,98872.95
2018-12-01T19:01:55.460Z,98867.47
2018-12-01T19:04:24.993Z,98859.75
2018-12-01T19:06:54.493Z,98855.88
2018-12-01T19:09:24.297Z,98855.38
2018-12-01T19:11:54.503Z,98843.94
2018-12-01T19:14:24.878Z,98843.48
2018-12-01T19:32:31.425Z,98837.70
2018-12-01T19:35:03.834Z,98838.77
2018-12-01T19:37:33.297Z,98836.06
2018-12-01T19:40:08.730Z,98836.69
2018-12-01T19:42:38.859Z,98842.98
2018-12-01T19:45:10.307Z,98843.33
2018-12-01T19:49:13.997Z,98841.87
2018-12-01T19:51:46.986Z,98832.98
2018-12-01T19:54:16.476Z,98833.34
2018-12-01T19:56:48.994Z,98830.93
2018-12-01T19:59:18.458Z,98834.52
2018-12-01T20:01:53.528Z,98828.50
2018-12-01T20:04:23.346Z,98838.01
2018-12-01T20:06:53.570Z,98832.48
2018-12-01T20:09:23.780Z,98832.16
2018-12-01T20:12:01.077Z,98828.44
2018-12-01T20:14:33.460Z,98820.88
2018-12-01T20:17:03.164Z,98824.37
2018-12-01T20:19:32.642Z,98820.14
2018-12-01T20:22:06.475Z,98820.47
2018-12-01T20:24:36.239Z,98821.16
2018-12-01T20:27:07.755Z,98821.00
2018-12-01T20:29:38.028Z,98818.44
2018-12-01T20:32:13.559Z,98816.28
2018-12-01T20:34:43.007Z,98815.23
2018-12-01T20:37:17.554Z,98812.35
2018-12-01T20:39:49.805Z,98815.16
2018-12-01T20:42:20.875Z,98806.75
2018-12-01T20:44:51.923Z,98806.53
2018-12-01T20:47:21.955Z,98810.64
2018-12-01T20:49:52.276Z,98800.52
2018-12-01T20:52:28.261Z,98809.12
2018-12-01T20:54:59.608Z,98804.91
2018-12-01T20:57:31.363Z,98805.41
2018-12-01T21:00:01.213Z,98805.01
2018-12-01T21:02:32.785Z,98806.27
2018-12-01T21:05:02.508Z,98793.04
2018-12-01T21:07:32.908Z,98788.80
2018-12-01T21:10:06.787Z,98796.11
2018-12-01T21:12:36.743Z,98795.41
2018-12-01T21:15:11.283Z,98784.17
2018-12-01T21:17:42.092Z,98786.65
2018-12-01T21:20:15.966Z,98784.24
2018-12-01T21:22:51.262Z,98783.38
2018-12-01T21:25:32.184Z,98768.39
2018-12-01T21:28:02.577Z,98776.30
2018-12-01T21:30:32.509Z,98777.05
2018-12-01T21:33:12.006Z,98779.47
2018-12-01T21:35:41.772Z,98775.09
2018-12-01T21:38:13.824Z,98773.83
2018-12-01T21:40:44.027Z,98778.50
2018-12-01T21:43:15.779Z,98771.45
2018-12-01T21:45:48.912Z,98769.39
2018-12-01T21:48:20.711Z,98756.75
2018-12-01T21:50:50.171Z,98757.27
2018-12-01T21:53:21.908Z,98758.63
2018-12-01T21:55:51.894Z,98764.61
2018-12-01T21:58:21.536Z,98763.59
2018-12-01T22:00:56.437Z,98756.30
2018-12-01T22:03:27.809Z,98765.17
2018-12-01T22:06:04.104Z,98753.17
2018-12-01T22:08:36.649Z,98757.61
2018-12-01T22:11:09.015Z,98749.80
2018-12-01T22:13:39.657Z,98744.01
2018-12-01T22:16:16.327Z,98744.78
2018-12-01T22:18:48.556Z,98751.86
2018-12-01T22:21:22.854Z,98744.31
2018-12-01T22:23:54.086Z,98746.84
2018-12-01T22:26:23.718Z,98745.88
2018-12-01T22:28:54.450Z,98746.42
2018-12-01T22:31:24.863Z,98742.72
2018-12-01T22:33:54.332Z,98736.88
2018-12-01T22:36:25.603Z,98737.48
2018-12-01T22:38:55.311Z,98736.16
2018-12-01T22:41:25.326Z,98728.60
2018-12-01T22:43:56.548Z,98733.13
2018-12-01T22:46:30.218Z,98729.20
2018-12-01T22:49:00.528Z,98729.80
2018-12-01T22:51:33.284Z,98719.23
2018-12-01T22:54:15.015Z,98715.15
2018-12-01T22:56:44.508Z,98715.69
2018-12-01T22:59:13.995Z,98701.50
2018-12-01T23:01:44.832Z,98704.72
2018-12-01T23:04:15.040Z,98689.77
2018-12-01T23:06:44.509Z,98686.88
2018-12-01T23:09:16.196Z,98677.98
2018-12-01T23:11:46.774Z,98680.33
2018-12-01T23:14:21.988Z,98680.71
2018-12-01T23:16:52.192Z,98682.48
2018-12-01T23:19:21.554Z,98672.06
2018-12-01T23:21:51.903Z,98659.97
2018-12-01T23:24:21.782Z,98655.33
2018-12-01T23:26:51.158Z,98652.75
2018-12-01T23:29:20.591Z,98654.33
2018-12-01T23:31:50.064Z,98650.39
2018-12-01T23:34:19.767Z,98646.30
2018-12-01T23:36:50.395Z,98644.44
2018-12-01T23:39:20.679Z,98641.05
2018-12-01T23:41:50.641Z,98635.23
2018-12-01T23:44:28.521Z,98642.41
2018-12-01T23:46:57.990Z,98643.13
2018-12-01T23:49:27.399Z,98637.42
2018-12-01T23:51:56.944Z,98640.92
2018-12-01T23:54:27.749Z,98645.33
2018-12-01T23:56:57.185Z,98640.92
2018-12-01T23:59:27.011Z,98633.06
